メインページ
METAR-TAF:

METAR-TAF

空港 :

ボストン, マサチューセッツ州, アメリカ合衆国

ジェネラル・エドワード・ローレンス・ローガン国際空港

緯度: 42-21-38N, 経度: 071-00-38W, 海抜: 6m

現時点の気象観測

当レポートは35分前の10:32(UTC)に作成
北/北東の風 18kt、最大26ktの突風を伴う
気温 18°C
湿度 100%
気圧 1012 hPa
視程: 6.4km
高度500ftの曇り
小雨, 靄

METAR: KBOS 201032Z 02018G26KT 4SM -RA BR OVC005 18/18 A2989 RMK AO2 PK WND 02026/1029 RAB0958 P0000 T01830183

時間: 07:07 (11:07 UTC)

予報

当レポートは2時間8分前の08:59(UTC)に作成
予報は20日の 09時(UTC)から 21日の 12時(UTC)まで有効
の風 16kt
視程: 4.8km
高度300ftの曇り
弱いにわか雨, 靄
20日の 1200時(UTC)から
北/北東の風 14kt、最大25ktの突風を伴う
視程: 6.4km
高度300ftの曇り
靄, 近辺でにわか雨
20日の 1800時(UTC)から
北/北東の風 18kt、最大33ktの突風を伴う
視程: 8.0km
高度800ftの曇り
靄, 近辺でにわか雨
21日の 0200時(UTC)から
の風 16kt、最大32ktの突風を伴う
視程: 8.0km
高度2500ftの曇り
21日の 0700時(UTC)から
の風 17kt、最大31ktの突風を伴う
視程: 10km
高度2000ftの曇り

TAF: KBOS 200859Z 2009/2112 01016KT 3SM -SHRA BR OVC003 FM201200 03014G25KT 4SM BR VCSH OVC003 FM201800 02018G33KT 5SM BR VCSH OVC008 FM210200 01016G32KT 5SM BR OVC025 FM210700 01017G31KT P6SM OVC020

4,000以上の空港の気象観測と天気予報(METAR報とTAF報)

利用可能な観測所は地図上に黄色い丸と赤い丸で示す。

丸の上にカーソルを重ねると観測所名を参照できる。

次にクリックすると気象観測と天気予報を参照できる。

マップの切り替え:黒色「×」印の緑ボタンをクリックして拡大、「-」印の緑ボタンをクリックして縮小、緑色の三角印をクリックして隣りの地図に切り替え


METAR-TAF: